Tropical Cyclones
[Index]
Main Index Home Page Stock Weather Photos Extreme Storms Discussion Storm News and Storm Chasing Reports Tropical Cyclones / Hurricanes / Typhoons Weather Data and Links Wild Fires / Bushfires Weather Observation Techniques Weather Picture Catalogue Tornado Pictures and Reports Stock Video Footage and DVDs for sale
Season 2011-2012 Tropical Cyclone GRANT Track Map
Season 2011-2012 Summaries: [BoM-AU] [JTWC-AU] [JTWC-SIO] [JTWC-SPAC] [JTWC-SH]
<<- Previous TC | BoM 2011-2012 Season | Next TC ->>

click for intensity scale information  Lat/long Grid: Show Hide

 Date Labels: Show Hide

Bureau of Meteorology Tropical Cyclone Data

Name: GRANT
Number: 954 / 201112_04

21 Dec 2011 00:00 UTC to 31 Dec 2011 06:00 UTC

    date/time    lat    long    hPa   cat  kts
2011-12-21 00   10.5   134.5   1004         20          
2011-12-21 06    9.6   132.3   1000         20          
2011-12-21 12    9.6   132.3   1001         20          
2011-12-21 18    9.8   132.4   1000         20          
2011-12-21 21    9.9   132.5   1000         20          
2011-12-22 00   10.1   132.4   1000         20          
2011-12-22 06   10.2   132.0    999         20          
2011-12-22 12   10.3   131.1    999         20          
2011-12-22 18   10.5   131.3    999         20          
2011-12-23 00   10.6   131.7    999         25          
2011-12-23 06   10.8   132.5    998         25          
2011-12-23 12   10.6   132.0    999         25          
2011-12-23 18   10.7   131.5    998         25          
2011-12-24 00   10.8   131.4    998         25          
2011-12-24 06   10.8   131.4    997         25          
2011-12-24 12   10.8   131.9    996         30          
2011-12-24 18   10.6   132.4    993    1    35          
2011-12-25 00   10.7   132.4    993    1    35          
2011-12-25 06   11.0   132.7    982    2    50          
2011-12-25 12   11.5   132.7    978    2    55          
2011-12-25 18   12.0   132.7    984    2    50          
2011-12-26 00   12.4   132.6    990    1    40          
2011-12-26 06   12.6   132.6    996         30          
2011-12-26 12   13.2   132.6    998         20          
2011-12-26 18   13.4   132.9    997         20          
2011-12-27 00   13.5   132.9    999         20          
2011-12-27 06   14.0   133.6    999         20          
2011-12-27 12   14.0   134.3   1000         20          
2011-12-27 18   14.0   134.7   1001         20          
2011-12-28 00   14.1   135.3   1001         20          
2011-12-28 06   14.1   136.2   1000         25          
2011-12-28 12   14.3   137.1                            
2011-12-28 18   14.4   138.0    998         25          
2011-12-29 00   14.4   139.2   1001         20          
2011-12-29 06   14.0   140.2   1002         20          
2011-12-29 12   13.7   140.7   1001         20          
2011-12-29 18   13.7   141.5   1000         20          
2011-12-30 00   13.6   142.7   1000         20          
2011-12-30 06   13.6   143.7                            
2011-12-30 12   13.1   145.4                            
2011-12-30 18   12.9   146.1   1002         25          
2011-12-31 00   12.5   146.9                            
2011-12-31 06   12.6   148.5   1004         25          
Winds are 10-min average.

Tropical cyclone tracks developed by Michael Bath using data from the Bureau of Meteorology and Google Maps.


[Australian Severe Weather index] [Copyright Notice] [Email Contacts] [Search This Site] [Privacy Policy]
Document: tropical_cyclone_grant.htm Updated: 29 June 2017